This is the latest recevied weather packets stored in our database for station/object VA7NEZ. If no packets are shown the sender has not sent any weather packets the latest 1 day(s).
| Time | Temp. | Humidity | Pressure | Rain* | Wind** | Luminosity | Snow |
|---|---|---|---|---|---|---|---|
| 1778039727 | 21.11° C | 33% | 1009.7 hPa | 0 mm | 0 m/s | - | - |
| 1778038687 | 22.78° C | 30% | 1009.6 hPa | 0 mm | 0 m/s | - | - |
| 1778038117 | 23.33° C | 29% | 1009.5 hPa | 0 mm | 0 m/s | - | - |
| 1778037627 | 23.89° C | 28% | 1009.6 hPa | 0 mm | 0 m/s | - | - |
| 1778035878 | 0° C | 100% | 1009.6 hPa | 0 mm | 0 m/s | - | - |
| 1778035382 | 26.67° C | 25% | 1009.5 hPa | 0 mm | 0 m/s | - | - |
| 1778034882 | 0° C | 100% | 1009.6 hPa | 0 mm | 0 m/s | - | - |
| 1778033722 | 32.22° C | 18% | 1009.5 hPa | 0 mm | 0 m/s | - | - |
| 1778033161 | 31.67° C | 18% | 1009.7 hPa | 0 mm | 0 m/s | - | - |
| 1778032592 | 30° C | 20% | 1009.6 hPa | 0 mm | 0 m/s | - | - |
| 1778032081 | 28.33° C | 20% | 1009.7 hPa | 0 mm | 0 m/s | - | - |
| 1778031522 | 28.33° C | 21% | 1009.6 hPa | 0 mm | 0 m/s | - | - |
| 1778030932 | 28.89° C | 20% | 1009.7 hPa | 0 mm | 0 m/s | - | - |
| 1778030442 | 30.56° C | 18% | 1009.7 hPa | 0 mm | 0 m/s | - | - |
| 1778029877 | 32.22° C | 17% | 1009.7 hPa | 0 mm | 0 m/s | - | - |
| 1778029383 | 31.67° C | 17% | 1009.9 hPa | 0 mm | 0 m/s | - | - |
| 1778028892 | 31.11° C | 17% | 1009.9 hPa | 0 mm | 0 m/s | - | - |
| 1778027327 | 30.56° C | 18% | 1010.2 hPa | 0 mm | 0 m/s | - | - |
| 1778026777 | 31.11° C | 17% | 1010.2 hPa | 0 mm | 0.89 m/s, 278° | - | - |
| 1778026297 | 31.67° C | 17% | 1010.2 hPa | 0 mm | 0 m/s | - | - |
| 1778025702 | 32.78° C | 18% | 1010.4 hPa | 0 mm | 0.89 m/s, 326° | - | - |
| 1778025167 | 30.56° C | 20% | 1010.5 hPa | 0 mm | 0 m/s | - | - |
| 1778024678 | 29.44° C | 20% | 1010.5 hPa | 0 mm | 0 m/s | - | - |
| 1778024192 | 30° C | 20% | 1010.7 hPa | 0 mm | 0.89 m/s, 311° | - | - |
| 1778023594 | 31.67° C | 18% | 1010.8 hPa | 0 mm | 0.89 m/s, 284° | - | - |
* Rain latest hour (hover to see other rain measurements)
** Current wind speed in m/s (hover to see current wind gust speed)